Etusivu
METAR-TAF:

METAR-TAF

Lentoasemat :

Omaha, Nebraska, Yhdysvallat

Leveyspiiri: 41-11-45N, Pituuspiiri: 096-06-44W, korkeus merenpinnasta: 320 m

Tämänhetkinen sää

Tämä raportti tehtiin 18 minuuttia sitten, kello 16.35 UTC
Tuuli 8 kn pohjoisesta/koillisesta, vaihdellen pohjoisen/luoteen ja idän/koillisen välillä
Lämpötila 24°C
Kosteus 57%
Ilmanpaine 1017 hPa
Näkyvyys: 16.1 km
selkeää

METAR: KMLE 101635Z AUTO 02008KT 330V060 10SM CLR 24/15 A3002 RMK AO2 T02400152

Aika: 11:53 (16:53 UTC)


TAF: puuttuu

Säähavainnot ja -ennusteet yli 4000 lentoasemalta (METAR- ja TAF-raportit).

Käytössä olevat sääasemat on merkitty karttaan keltaisilla ja punaisilla pisteillä.

Aseta hiiri pisteen päälle nähdäksesi sääaseman nimen.

Klikkaa sitten nähdäksesi säähavainnot ja -ennusteet.

Kartan vaihtaminen: klikkaa mustalla rastilla varustettuja vihreitä pisteitä, niin voit zoomata sisään; viivalla varustettua vihreää pistettä, niin voit zoomata ulos tai vihreitä nuolia, niin pääset viereisille kartoille.


METAR-TAF: